sensor_id;sensor_type;location;lat;lon;timestamp;temperature;humidity
22779;DHT22;11556;51.194;3.800;2022-08-21T00:01:42;16.90;99.90
22779;DHT22;11556;51.194;3.800;2022-08-21T00:04:09;16.80;99.90
22779;DHT22;11556;51.194;3.800;2022-08-21T00:06:36;16.80;99.90
22779;DHT22;11556;51.194;3.800;2022-08-21T00:09:04;16.80;99.90
22779;DHT22;11556;51.194;3.800;2022-08-21T00:11:30;16.80;99.90
22779;DHT22;11556;51.194;3.800;2022-08-21T00:13:56;16.80;99.90
22779;DHT22;11556;51.194;3.800;2022-08-21T00:16:22;16.70;99.90
22779;DHT22;11556;51.194;3.800;2022-08-21T00:18:48;16.70;99.90
22779;DHT22;11556;51.194;3.800;2022-08-21T00:21:15;16.60;99.90
22779;DHT22;11556;51.194;3.800;2022-08-21T00:23:41;16.70;99.90
22779;DHT22;11556;51.194;3.800;2022-08-21T00:26:07;16.60;99.90
22779;DHT22;11556;51.194;3.800;2022-08-21T00:28:33;16.60;99.90
22779;DHT22;11556;51.194;3.800;2022-08-21T00:30:59;16.50;99.90
22779;DHT22;11556;51.194;3.800;2022-08-21T00:33:26;16.50;99.90
22779;DHT22;11556;51.194;3.800;2022-08-21T00:35:52;16.50;99.90
22779;DHT22;11556;51.194;3.800;2022-08-21T00:38:18;16.50;99.90
22779;DHT22;11556;51.194;3.800;2022-08-21T00:40:50;16.50;99.90
22779;DHT22;11556;51.194;3.800;2022-08-21T00:43:29;16.50;99.90
22779;DHT22;11556;51.194;3.800;2022-08-21T00:45:55;16.50;99.90
22779;DHT22;11556;51.194;3.800;2022-08-21T00:48:22;16.50;99.90
22779;DHT22;11556;51.194;3.800;2022-08-21T00:53:24;16.50;99.90
22779;DHT22;11556;51.194;3.800;2022-08-21T00:55:51;16.60;99.90
22779;DHT22;11556;51.194;3.800;2022-08-21T00:58:17;16.50;99.90
22779;DHT22;11556;51.194;3.800;2022-08-21T01:00:44;16.50;99.90
22779;DHT22;11556;51.194;3.800;2022-08-21T01:03:17;16.50;99.90
22779;DHT22;11556;51.194;3.800;2022-08-21T01:05:43;16.50;99.90
22779;DHT22;11556;51.194;3.800;2022-08-21T01:08:09;16.50;99.90
22779;DHT22;11556;51.194;3.800;2022-08-21T01:10:36;16.60;99.90
22779;DHT22;11556;51.194;3.800;2022-08-21T01:13:04;16.50;99.90
22779;DHT22;11556;51.194;3.800;2022-08-21T01:15:34;16.50;99.90
22779;DHT22;11556;51.194;3.800;2022-08-21T01:18:05;16.60;99.90
22779;DHT22;11556;51.194;3.800;2022-08-21T01:20:33;16.60;99.90
22779;DHT22;11556;51.194;3.800;2022-08-21T01:23:01;16.50;99.90
22779;DHT22;11556;51.194;3.800;2022-08-21T01:25:27;16.50;99.90
22779;DHT22;11556;51.194;3.800;2022-08-21T01:27:52;16.50;99.90
22779;DHT22;11556;51.194;3.800;2022-08-21T01:30:24;16.50;99.90
22779;DHT22;11556;51.194;3.800;2022-08-21T01:32:50;16.60;99.90
22779;DHT22;11556;51.194;3.800;2022-08-21T01:35:18;16.50;99.90
22779;DHT22;11556;51.194;3.800;2022-08-21T01:37:45;16.50;99.90
22779;DHT22;11556;51.194;3.800;2022-08-21T01:40:12;16.50;99.90
22779;DHT22;11556;51.194;3.800;2022-08-21T01:42:40;16.50;99.90
22779;DHT22;11556;51.194;3.800;2022-08-21T01:45:07;16.40;99.90
22779;DHT22;11556;51.194;3.800;2022-08-21T01:47:33;16.40;99.90
22779;DHT22;11556;51.194;3.800;2022-08-21T01:49:59;16.40;99.90
22779;DHT22;11556;51.194;3.800;2022-08-21T01:52:25;16.40;99.90
22779;DHT22;11556;51.194;3.800;2022-08-21T01:54:51;16.40;99.90
22779;DHT22;11556;51.194;3.800;2022-08-21T01:57:17;16.40;99.90
22779;DHT22;11556;51.194;3.800;2022-08-21T01:59:42;16.30;99.90
22779;DHT22;11556;51.194;3.800;2022-08-21T02:02:08;16.30;99.90
22779;DHT22;11556;51.194;3.800;2022-08-21T02:04:34;16.40;99.90
22779;DHT22;11556;51.194;3.800;2022-08-21T02:07:00;16.30;99.90
22779;DHT22;11556;51.194;3.800;2022-08-21T02:09:26;16.30;99.90
22779;DHT22;11556;51.194;3.800;2022-08-21T02:11:52;16.30;99.90
22779;DHT22;11556;51.194;3.800;2022-08-21T02:14:19;16.30;99.90
22779;DHT22;11556;51.194;3.800;2022-08-21T02:16:45;16.30;99.90
22779;DHT22;11556;51.194;3.800;2022-08-21T02:19:12;16.30;99.90
22779;DHT22;11556;51.194;3.800;2022-08-21T02:21:38;16.20;99.90
22779;DHT22;11556;51.194;3.800;2022-08-21T02:24:04;16.20;99.90
22779;DHT22;11556;51.194;3.800;2022-08-21T02:26:30;16.20;99.90
22779;DHT22;11556;51.194;3.800;2022-08-21T02:28:55;16.30;99.90
22779;DHT22;11556;51.194;3.800;2022-08-21T02:31:21;16.30;99.90
22779;DHT22;11556;51.194;3.800;2022-08-21T02:33:47;16.30;99.90
22779;DHT22;11556;51.194;3.800;2022-08-21T02:36:13;16.30;99.90
22779;DHT22;11556;51.194;3.800;2022-08-21T02:38:40;16.30;99.90
22779;DHT22;11556;51.194;3.800;2022-08-21T02:41:08;16.30;99.90
22779;DHT22;11556;51.194;3.800;2022-08-21T02:43:35;16.30;99.90
22779;DHT22;11556;51.194;3.800;2022-08-21T02:46:03;16.30;99.90
22779;DHT22;11556;51.194;3.800;2022-08-21T02:48:31;16.30;99.90
22779;DHT22;11556;51.194;3.800;2022-08-21T02:50:59;16.20;99.90
22779;DHT22;11556;51.194;3.800;2022-08-21T02:53:26;16.20;99.90
22779;DHT22;11556;51.194;3.800;2022-08-21T02:55:53;16.20;99.90
22779;DHT22;11556;51.194;3.800;2022-08-21T02:58:25;16.20;99.90
22779;DHT22;11556;51.194;3.800;2022-08-21T03:00:52;16.20;99.90
22779;DHT22;11556;51.194;3.800;2022-08-21T03:03:19;16.20;99.90
22779;DHT22;11556;51.194;3.800;2022-08-21T03:05:46;16.20;99.90
22779;DHT22;11556;51.194;3.800;2022-08-21T03:08:13;16.20;99.90
22779;DHT22;11556;51.194;3.800;2022-08-21T03:10:43;16.10;99.90
22779;DHT22;11556;51.194;3.800;2022-08-21T03:13:09;16.10;99.90
22779;DHT22;11556;51.194;3.800;2022-08-21T03:15:35;16.10;99.90
22779;DHT22;11556;51.194;3.800;2022-08-21T03:18:02;16.10;99.90
22779;DHT22;11556;51.194;3.800;2022-08-21T03:20:29;16.10;99.90
22779;DHT22;11556;51.194;3.800;2022-08-21T03:22:55;16.10;99.90
22779;DHT22;11556;51.194;3.800;2022-08-21T03:25:22;16.00;99.90
22779;DHT22;11556;51.194;3.800;2022-08-21T03:27:49;16.00;99.90
22779;DHT22;11556;51.194;3.800;2022-08-21T03:30:16;16.00;99.90
22779;DHT22;11556;51.194;3.800;2022-08-21T03:32:41;16.00;99.90
22779;DHT22;11556;51.194;3.800;2022-08-21T03:35:07;16.00;99.90
22779;DHT22;11556;51.194;3.800;2022-08-21T03:37:33;15.90;99.90
22779;DHT22;11556;51.194;3.800;2022-08-21T03:39:59;15.90;99.90
22779;DHT22;11556;51.194;3.800;2022-08-21T03:42:24;15.90;99.90
22779;DHT22;11556;51.194;3.800;2022-08-21T03:44:50;15.90;99.90
22779;DHT22;11556;51.194;3.800;2022-08-21T03:47:16;16.00;99.90
22779;DHT22;11556;51.194;3.800;2022-08-21T03:49:42;16.00;99.90
22779;DHT22;11556;51.194;3.800;2022-08-21T03:52:07;16.00;99.90
22779;DHT22;11556;51.194;3.800;2022-08-21T03:54:33;16.00;99.90
22779;DHT22;11556;51.194;3.800;2022-08-21T03:56:59;16.00;99.90
22779;DHT22;11556;51.194;3.800;2022-08-21T03:59:25;16.00;99.90
22779;DHT22;11556;51.194;3.800;2022-08-21T04:01:55;15.90;99.90
22779;DHT22;11556;51.194;3.800;2022-08-21T04:04:21;15.90;99.90
22779;DHT22;11556;51.194;3.800;2022-08-21T04:06:47;15.90;99.90
22779;DHT22;11556;51.194;3.800;2022-08-21T04:09:12;15.90;99.90
22779;DHT22;11556;51.194;3.800;2022-08-21T04:11:38;15.90;99.90
22779;DHT22;11556;51.194;3.800;2022-08-21T04:14:04;15.80;99.90
22779;DHT22;11556;51.194;3.800;2022-08-21T04:16:30;15.80;99.90
22779;DHT22;11556;51.194;3.800;2022-08-21T04:18:56;15.80;99.90
22779;DHT22;11556;51.194;3.800;2022-08-21T04:21:22;15.80;99.90
22779;DHT22;11556;51.194;3.800;2022-08-21T04:23:48;15.90;99.90
22779;DHT22;11556;51.194;3.800;2022-08-21T04:26:14;15.80;99.90
22779;DHT22;11556;51.194;3.800;2022-08-21T04:28:41;15.80;99.90
22779;DHT22;11556;51.194;3.800;2022-08-21T04:31:08;15.70;99.90
22779;DHT22;11556;51.194;3.800;2022-08-21T04:33:33;15.70;99.90
22779;DHT22;11556;51.194;3.800;2022-08-21T04:35:59;15.80;99.90
22779;DHT22;11556;51.194;3.800;2022-08-21T04:38:25;15.70;99.90
22779;DHT22;11556;51.194;3.800;2022-08-21T04:40:51;15.70;99.90
22779;DHT22;11556;51.194;3.800;2022-08-21T04:43:18;15.80;99.90
22779;DHT22;11556;51.194;3.800;2022-08-21T04:45:48;15.80;99.90
22779;DHT22;11556;51.194;3.800;2022-08-21T04:48:16;15.70;99.90
22779;DHT22;11556;51.194;3.800;2022-08-21T04:50:43;15.70;99.90
22779;DHT22;11556;51.194;3.800;2022-08-21T04:53:14;15.70;99.90
22779;DHT22;11556;51.194;3.800;2022-08-21T04:55:42;15.70;99.90
22779;DHT22;11556;51.194;3.800;2022-08-21T04:58:09;15.70;99.90
22779;DHT22;11556;51.194;3.800;2022-08-21T05:00:37;15.70;99.90
22779;DHT22;11556;51.194;3.800;2022-08-21T05:03:05;15.70;99.90
22779;DHT22;11556;51.194;3.800;2022-08-21T05:05:31;15.70;99.90
22779;DHT22;11556;51.194;3.800;2022-08-21T05:07:59;15.70;99.90
22779;DHT22;11556;51.194;3.800;2022-08-21T05:10:27;15.70;99.90
22779;DHT22;11556;51.194;3.800;2022-08-21T05:12:53;15.80;99.90
22779;DHT22;11556;51.194;3.800;2022-08-21T05:15:19;15.90;99.90
22779;DHT22;11556;51.194;3.800;2022-08-21T05:17:46;15.90;99.90
22779;DHT22;11556;51.194;3.800;2022-08-21T05:20:13;16.00;99.90
22779;DHT22;11556;51.194;3.800;2022-08-21T05:22:39;16.00;99.90
22779;DHT22;11556;51.194;3.800;2022-08-21T05:25:06;16.00;99.90
22779;DHT22;11556;51.194;3.800;2022-08-21T05:27:32;16.10;99.90
22779;DHT22;11556;51.194;3.800;2022-08-21T05:29:57;16.10;99.90
22779;DHT22;11556;51.194;3.800;2022-08-21T05:32:23;16.10;99.90
22779;DHT22;11556;51.194;3.800;2022-08-21T05:34:49;16.20;99.90
22779;DHT22;11556;51.194;3.800;2022-08-21T05:37:15;16.20;99.90
22779;DHT22;11556;51.194;3.800;2022-08-21T05:39:41;16.40;99.90
22779;DHT22;11556;51.194;3.800;2022-08-21T05:42:07;16.50;99.90
22779;DHT22;11556;51.194;3.800;2022-08-21T05:44:33;16.40;99.90
22779;DHT22;11556;51.194;3.800;2022-08-21T05:47:07;16.50;99.90
22779;DHT22;11556;51.194;3.800;2022-08-21T05:49:34;16.90;99.90
22779;DHT22;11556;51.194;3.800;2022-08-21T05:52:00;17.60;99.90
22779;DHT22;11556;51.194;3.800;2022-08-21T05:54:26;18.10;99.90
22779;DHT22;11556;51.194;3.800;2022-08-21T05:56:52;19.00;99.90
22779;DHT22;11556;51.194;3.800;2022-08-21T05:59:18;20.30;99.90
22779;DHT22;11556;51.194;3.800;2022-08-21T06:01:44;21.10;99.90
22779;DHT22;11556;51.194;3.800;2022-08-21T06:04:11;22.00;99.90
22779;DHT22;11556;51.194;3.800;2022-08-21T06:06:37;22.70;99.90
22779;DHT22;11556;51.194;3.800;2022-08-21T06:09:03;23.30;99.90
22779;DHT22;11556;51.194;3.800;2022-08-21T06:11:29;23.40;99.90
22779;DHT22;11556;51.194;3.800;2022-08-21T06:13:54;23.60;99.90
22779;DHT22;11556;51.194;3.800;2022-08-21T06:16:20;24.00;99.90
22779;DHT22;11556;51.194;3.800;2022-08-21T06:18:47;24.40;99.90
22779;DHT22;11556;51.194;3.800;2022-08-21T06:21:13;24.90;99.90
22779;DHT22;11556;51.194;3.800;2022-08-21T06:23:39;25.60;99.90
22779;DHT22;11556;51.194;3.800;2022-08-21T06:26:06;25.60;99.30
22779;DHT22;11556;51.194;3.800;2022-08-21T06:28:33;25.10;99.50
22779;DHT22;11556;51.194;3.800;2022-08-21T06:30:59;24.90;99.90
22779;DHT22;11556;51.194;3.800;2022-08-21T06:33:25;25.40;99.90
22779;DHT22;11556;51.194;3.800;2022-08-21T06:35:51;25.90;98.40
22779;DHT22;11556;51.194;3.800;2022-08-21T06:38:17;26.90;96.70
22779;DHT22;11556;51.194;3.800;2022-08-21T06:40:42;27.20;95.30
22779;DHT22;11556;51.194;3.800;2022-08-21T06:43:11;27.40;94.40
22779;DHT22;11556;51.194;3.800;2022-08-21T06:45:37;27.50;93.50
22779;DHT22;11556;51.194;3.800;2022-08-21T06:48:03;27.20;93.90
22779;DHT22;11556;51.194;3.800;2022-08-21T06:50:29;27.60;93.30
22779;DHT22;11556;51.194;3.800;2022-08-21T06:53:17;28.10;92.10
22779;DHT22;11556;51.194;3.800;2022-08-21T06:55:43;28.10;91.50
22779;DHT22;11556;51.194;3.800;2022-08-21T06:58:11;28.30;90.70
22779;DHT22;11556;51.194;3.800;2022-08-21T07:00:42;28.20;90.90
22779;DHT22;11556;51.194;3.800;2022-08-21T07:03:20;28.00;91.10
22779;DHT22;11556;51.194;3.800;2022-08-21T07:05:45;27.40;92.00
22779;DHT22;11556;51.194;3.800;2022-08-21T07:08:11;26.60;94.00
22779;DHT22;11556;51.194;3.800;2022-08-21T07:10:37;26.30;95.30
22779;DHT22;11556;51.194;3.800;2022-08-21T07:13:02;26.10;96.10
22779;DHT22;11556;51.194;3.800;2022-08-21T07:15:29;26.10;96.80
22779;DHT22;11556;51.194;3.800;2022-08-21T07:17:54;25.80;96.70
22779;DHT22;11556;51.194;3.800;2022-08-21T07:20:20;25.80;97.40
22779;DHT22;11556;51.194;3.800;2022-08-21T07:22:45;26.10;97.60
22779;DHT22;11556;51.194;3.800;2022-08-21T07:25:11;26.20;97.10
22779;DHT22;11556;51.194;3.800;2022-08-21T07:27:37;26.50;96.20
22779;DHT22;11556;51.194;3.800;2022-08-21T07:30:04;26.80;96.00
22779;DHT22;11556;51.194;3.800;2022-08-21T07:32:29;27.90;93.90
22779;DHT22;11556;51.194;3.800;2022-08-21T07:34:55;29.30;91.00
22779;DHT22;11556;51.194;3.800;2022-08-21T07:37:20;30.10;86.50
22779;DHT22;11556;51.194;3.800;2022-08-21T07:39:46;29.90;84.80
22779;DHT22;11556;51.194;3.800;2022-08-21T07:42:14;28.90;87.60
22779;DHT22;11556;51.194;3.800;2022-08-21T07:44:40;28.80;87.90
22779;DHT22;11556;51.194;3.800;2022-08-21T07:47:05;27.80;90.50
22779;DHT22;11556;51.194;3.800;2022-08-21T07:49:31;28.10;91.00
22779;DHT22;11556;51.194;3.800;2022-08-21T07:51:57;28.40;90.40
22779;DHT22;11556;51.194;3.800;2022-08-21T07:54:22;29.10;89.90
22779;DHT22;11556;51.194;3.800;2022-08-21T07:56:48;29.50;86.80
22779;DHT22;11556;51.194;3.800;2022-08-21T07:59:13;29.70;85.70
22779;DHT22;11556;51.194;3.800;2022-08-21T08:01:39;29.90;84.10
22779;DHT22;11556;51.194;3.800;2022-08-21T08:04:05;31.00;81.20
22779;DHT22;11556;51.194;3.800;2022-08-21T08:06:31;31.40;78.10
22779;DHT22;11556;51.194;3.800;2022-08-21T08:08:56;31.90;75.80
22779;DHT22;11556;51.194;3.800;2022-08-21T08:11:22;31.30;76.30
22779;DHT22;11556;51.194;3.800;2022-08-21T08:13:52;31.80;75.30
22779;DHT22;11556;51.194;3.800;2022-08-21T08:16:18;32.20;73.50
22779;DHT22;11556;51.194;3.800;2022-08-21T08:18:44;33.00;71.40
22779;DHT22;11556;51.194;3.800;2022-08-21T08:21:11;33.50;68.60
22779;DHT22;11556;51.194;3.800;2022-08-21T08:23:37;33.70;67.50
22779;DHT22;11556;51.194;3.800;2022-08-21T08:26:04;34.30;64.70
22779;DHT22;11556;51.194;3.800;2022-08-21T08:28:31;34.80;63.40
22779;DHT22;11556;51.194;3.800;2022-08-21T08:30:59;34.40;62.30
22779;DHT22;11556;51.194;3.800;2022-08-21T08:33:25;34.20;62.10
22779;DHT22;11556;51.194;3.800;2022-08-21T08:35:51;33.70;64.20
22779;DHT22;11556;51.194;3.800;2022-08-21T08:38:18;33.90;62.80
22779;DHT22;11556;51.194;3.800;2022-08-21T08:41:10;33.70;62.50
22779;DHT22;11556;51.194;3.800;2022-08-21T08:43:38;33.20;63.60
22779;DHT22;11556;51.194;3.800;2022-08-21T08:46:15;32.30;65.10
22779;DHT22;11556;51.194;3.800;2022-08-21T08:49:06;31.60;68.40
22779;DHT22;11556;51.194;3.800;2022-08-21T08:51:57;31.50;69.00
22779;DHT22;11556;51.194;3.800;2022-08-21T08:54:33;31.10;70.90
22779;DHT22;11556;51.194;3.800;2022-08-21T08:57:02;31.40;69.00
22779;DHT22;11556;51.194;3.800;2022-08-21T08:59:39;31.40;69.70
22779;DHT22;11556;51.194;3.800;2022-08-21T09:02:06;31.80;69.30
22779;DHT22;11556;51.194;3.800;2022-08-21T09:04:34;33.00;66.60
22779;DHT22;11556;51.194;3.800;2022-08-21T09:20:57;29.30;72.80
22779;DHT22;11556;51.194;3.800;2022-08-21T09:26:13;27.80;79.80
22779;DHT22;11556;51.194;3.800;2022-08-21T09:28:39;27.60;81.70
22779;DHT22;11556;51.194;3.800;2022-08-21T09:31:11;28.20;80.40
22779;DHT22;11556;51.194;3.800;2022-08-21T09:33:41;29.20;77.30
22779;DHT22;11556;51.194;3.800;2022-08-21T09:36:06;30.30;72.70
22779;DHT22;11556;51.194;3.800;2022-08-21T09:38:35;31.10;71.20
22779;DHT22;11556;51.194;3.800;2022-08-21T09:41:09;31.10;68.30
22779;DHT22;11556;51.194;3.800;2022-08-21T09:43:36;30.90;69.70
22779;DHT22;11556;51.194;3.800;2022-08-21T09:46:20;31.30;67.90
22779;DHT22;11556;51.194;3.800;2022-08-21T09:48:49;30.60;67.40
22779;DHT22;11556;51.194;3.800;2022-08-21T09:51:21;30.40;67.90
22779;DHT22;11556;51.194;3.800;2022-08-21T09:54:14;30.70;68.00
22779;DHT22;11556;51.194;3.800;2022-08-21T09:57:11;30.30;67.60
22779;DHT22;11556;51.194;3.800;2022-08-21T10:00:15;30.70;67.40
22779;DHT22;11556;51.194;3.800;2022-08-21T10:02:43;31.50;66.30
22779;DHT22;11556;51.194;3.800;2022-08-21T10:05:18;32.20;64.70
22779;DHT22;11556;51.194;3.800;2022-08-21T10:07:44;33.00;62.40
22779;DHT22;11556;51.194;3.800;2022-08-21T10:10:36;33.60;60.50
22779;DHT22;11556;51.194;3.800;2022-08-21T10:13:32;33.30;61.00
22779;DHT22;11556;51.194;3.800;2022-08-21T10:16:10;33.80;59.40
22779;DHT22;11556;51.194;3.800;2022-08-21T10:22:56;33.10;59.50
22779;DHT22;11556;51.194;3.800;2022-08-21T10:25:19;32.10;60.90
22779;DHT22;11556;51.194;3.800;2022-08-21T10:28:06;31.60;61.90
22779;DHT22;11556;51.194;3.800;2022-08-21T10:30:52;31.30;62.70
22779;DHT22;11556;51.194;3.800;2022-08-21T10:38:54;31.00;63.00
22779;DHT22;11556;51.194;3.800;2022-08-21T10:55:16;31.50;60.60
22779;DHT22;11556;51.194;3.800;2022-08-21T10:58:05;31.60;61.40
22779;DHT22;11556;51.194;3.800;2022-08-21T11:00:43;32.40;59.80
22779;DHT22;11556;51.194;3.800;2022-08-21T11:03:11;33.10;58.80
22779;DHT22;11556;51.194;3.800;2022-08-21T11:05:48;34.20;56.80
22779;DHT22;11556;51.194;3.800;2022-08-21T11:08:38;35.20;55.10
22779;DHT22;11556;51.194;3.800;2022-08-21T11:13:44;35.60;51.30
22779;DHT22;11556;51.194;3.800;2022-08-21T11:22:05;35.40;51.90
22779;DHT22;11556;51.194;3.800;2022-08-21T11:29:55;34.00;54.00
22779;DHT22;11556;51.194;3.800;2022-08-21T11:43:40;33.50;54.40
22779;DHT22;11556;51.194;3.800;2022-08-21T11:52:07;33.60;53.90
22779;DHT22;11556;51.194;3.800;2022-08-21T11:54:48;34.40;53.20
22779;DHT22;11556;51.194;3.800;2022-08-21T11:57:21;34.20;53.40
22779;DHT22;11556;51.194;3.800;2022-08-21T12:02:31;33.70;52.60
22779;DHT22;11556;51.194;3.800;2022-08-21T12:05:05;34.30;50.80
22779;DHT22;11556;51.194;3.800;2022-08-21T12:07:39;34.80;50.20
22779;DHT22;11556;51.194;3.800;2022-08-21T12:10:11;35.60;49.50
22779;DHT22;11556;51.194;3.800;2022-08-21T12:12:39;36.10;48.40
22779;DHT22;11556;51.194;3.800;2022-08-21T12:18:18;34.40;49.70
22779;DHT22;11556;51.194;3.800;2022-08-21T12:23:48;34.80;50.40
22779;DHT22;11556;51.194;3.800;2022-08-21T12:26:33;34.80;50.70
22779;DHT22;11556;51.194;3.800;2022-08-21T12:29:24;34.50;50.50
22779;DHT22;11556;51.194;3.800;2022-08-21T12:34:20;34.10;50.60
22779;DHT22;11556;51.194;3.800;2022-08-21T12:36:50;33.30;51.60
22779;DHT22;11556;51.194;3.800;2022-08-21T12:39:24;32.50;52.60
22779;DHT22;11556;51.194;3.800;2022-08-21T12:44:48;31.50;55.50
22779;DHT22;11556;51.194;3.800;2022-08-21T12:47:28;31.20;55.90
22779;DHT22;11556;51.194;3.800;2022-08-21T12:50:24;30.90;56.60
22779;DHT22;11556;51.194;3.800;2022-08-21T12:53:03;30.70;57.10
22779;DHT22;11556;51.194;3.800;2022-08-21T12:55:32;30.60;57.60
22779;DHT22;11556;51.194;3.800;2022-08-21T12:57:58;30.60;57.20
22779;DHT22;11556;51.194;3.800;2022-08-21T13:00:25;30.90;57.30
22779;DHT22;11556;51.194;3.800;2022-08-21T13:02:52;31.50;56.40
22779;DHT22;11556;51.194;3.800;2022-08-21T13:05:37;31.40;56.40
22779;DHT22;11556;51.194;3.800;2022-08-21T13:08:06;31.50;56.00
22779;DHT22;11556;51.194;3.800;2022-08-21T13:10:34;31.70;56.60
22779;DHT22;11556;51.194;3.800;2022-08-21T13:13:12;32.30;55.40
22779;DHT22;11556;51.194;3.800;2022-08-21T13:15:42;33.00;53.90
22779;DHT22;11556;51.194;3.800;2022-08-21T13:18:08;33.10;53.40
22779;DHT22;11556;51.194;3.800;2022-08-21T13:20:40;32.90;53.00
22779;DHT22;11556;51.194;3.800;2022-08-21T13:23:38;31.90;55.10
22779;DHT22;11556;51.194;3.800;2022-08-21T13:26:15;31.40;56.00
22779;DHT22;11556;51.194;3.800;2022-08-21T13:28:41;31.30;57.60
22779;DHT22;11556;51.194;3.800;2022-08-21T13:31:08;31.30;56.90
22779;DHT22;11556;51.194;3.800;2022-08-21T13:33:39;31.60;56.90
22779;DHT22;11556;51.194;3.800;2022-08-21T13:36:13;32.10;56.00
22779;DHT22;11556;51.194;3.800;2022-08-21T13:38:41;32.20;55.60
22779;DHT22;11556;51.194;3.800;2022-08-21T13:41:21;32.10;55.70
22779;DHT22;11556;51.194;3.800;2022-08-21T13:44:35;32.70;54.90
22779;DHT22;11556;51.194;3.800;2022-08-21T13:46:53;33.10;54.60
22779;DHT22;11556;51.194;3.800;2022-08-21T13:49:22;33.60;53.10
22779;DHT22;11556;51.194;3.800;2022-08-21T13:51:49;33.90;52.80
22779;DHT22;11556;51.194;3.800;2022-08-21T13:54:21;34.70;51.40
22779;DHT22;11556;51.194;3.800;2022-08-21T13:56:48;35.10;50.10
22779;DHT22;11556;51.194;3.800;2022-08-21T13:59:27;34.60;50.80
22779;DHT22;11556;51.194;3.800;2022-08-21T14:02:20;34.60;51.40
22779;DHT22;11556;51.194;3.800;2022-08-21T14:07:29;33.20;52.50
22779;DHT22;11556;51.194;3.800;2022-08-21T14:09:55;32.70;53.40
22779;DHT22;11556;51.194;3.800;2022-08-21T14:12:27;32.30;53.90
22779;DHT22;11556;51.194;3.800;2022-08-21T14:14:55;31.90;55.20
22779;DHT22;11556;51.194;3.800;2022-08-21T14:17:34;31.60;54.70
22779;DHT22;11556;51.194;3.800;2022-08-21T14:20:01;31.30;55.30
22779;DHT22;11556;51.194;3.800;2022-08-21T14:25:05;30.80;56.40
22779;DHT22;11556;51.194;3.800;2022-08-21T14:27:33;30.50;57.20
22779;DHT22;11556;51.194;3.800;2022-08-21T14:30:04;30.40;58.00
22779;DHT22;11556;51.194;3.800;2022-08-21T14:32:38;30.20;58.90
22779;DHT22;11556;51.194;3.800;2022-08-21T14:35:04;30.10;58.20
22779;DHT22;11556;51.194;3.800;2022-08-21T14:37:30;30.10;58.10
22779;DHT22;11556;51.194;3.800;2022-08-21T14:39:56;30.20;58.60
22779;DHT22;11556;51.194;3.800;2022-08-21T14:42:21;30.10;58.40
22779;DHT22;11556;51.194;3.800;2022-08-21T14:44:47;30.10;58.60
22779;DHT22;11556;51.194;3.800;2022-08-21T14:47:13;30.10;58.90
22779;DHT22;11556;51.194;3.800;2022-08-21T14:49:40;30.10;58.70
22779;DHT22;11556;51.194;3.800;2022-08-21T14:52:05;30.20;58.80
22779;DHT22;11556;51.194;3.800;2022-08-21T14:54:32;30.30;59.10
22779;DHT22;11556;51.194;3.800;2022-08-21T14:57:09;30.30;58.80
22779;DHT22;11556;51.194;3.800;2022-08-21T14:59:36;30.20;59.00
22779;DHT22;11556;51.194;3.800;2022-08-21T15:02:03;30.10;59.30
22779;DHT22;11556;51.194;3.800;2022-08-21T15:04:29;30.00;59.10
22779;DHT22;11556;51.194;3.800;2022-08-21T15:06:55;30.00;59.50
22779;DHT22;11556;51.194;3.800;2022-08-21T15:09:21;29.80;59.60
22779;DHT22;11556;51.194;3.800;2022-08-21T15:11:47;29.60;59.90
22779;DHT22;11556;51.194;3.800;2022-08-21T15:14:22;29.60;59.90
22779;DHT22;11556;51.194;3.800;2022-08-21T15:16:48;29.70;59.50
22779;DHT22;11556;51.194;3.800;2022-08-21T15:19:15;29.60;61.00
22779;DHT22;11556;51.194;3.800;2022-08-21T15:21:40;29.50;60.60
22779;DHT22;11556;51.194;3.800;2022-08-21T15:24:06;29.60;61.30
22779;DHT22;11556;51.194;3.800;2022-08-21T15:26:32;29.60;61.50
22779;DHT22;11556;51.194;3.800;2022-08-21T15:28:59;29.50;60.70
22779;DHT22;11556;51.194;3.800;2022-08-21T15:31:25;29.40;62.30
22779;DHT22;11556;51.194;3.800;2022-08-21T15:33:50;29.40;62.40
22779;DHT22;11556;51.194;3.800;2022-08-21T15:36:17;29.50;62.10
22779;DHT22;11556;51.194;3.800;2022-08-21T15:38:43;29.50;61.80
22779;DHT22;11556;51.194;3.800;2022-08-21T15:41:10;29.70;62.60
22779;DHT22;11556;51.194;3.800;2022-08-21T15:43:47;29.90;61.70
22779;DHT22;11556;51.194;3.800;2022-08-21T15:46:15;29.70;62.30
22779;DHT22;11556;51.194;3.800;2022-08-21T15:48:42;29.20;63.30
22779;DHT22;11556;51.194;3.800;2022-08-21T15:51:10;28.60;64.80
22779;DHT22;11556;51.194;3.800;2022-08-21T15:53:36;27.90;67.60
22779;DHT22;11556;51.194;3.800;2022-08-21T15:56:05;27.50;69.70
22779;DHT22;11556;51.194;3.800;2022-08-21T15:58:31;27.50;69.20
22779;DHT22;11556;51.194;3.800;2022-08-21T16:01:00;27.40;69.40
22779;DHT22;11556;51.194;3.800;2022-08-21T16:03:26;27.30;70.80
22779;DHT22;11556;51.194;3.800;2022-08-21T16:05:52;27.30;70.40
22779;DHT22;11556;51.194;3.800;2022-08-21T16:08:20;27.20;70.70
22779;DHT22;11556;51.194;3.800;2022-08-21T16:10:46;27.10;71.50
22779;DHT22;11556;51.194;3.800;2022-08-21T16:13:27;26.60;72.80
22779;DHT22;11556;51.194;3.800;2022-08-21T16:15:54;26.60;74.10
22779;DHT22;11556;51.194;3.800;2022-08-21T16:18:20;26.10;75.30
22779;DHT22;11556;51.194;3.800;2022-08-21T16:20:48;26.10;75.90
22779;DHT22;11556;51.194;3.800;2022-08-21T16:23:14;26.20;76.20
22779;DHT22;11556;51.194;3.800;2022-08-21T16:25:40;26.10;77.10
22779;DHT22;11556;51.194;3.800;2022-08-21T16:28:08;26.10;76.40
22779;DHT22;11556;51.194;3.800;2022-08-21T16:30:35;26.00;76.50
22779;DHT22;11556;51.194;3.800;2022-08-21T16:33:03;26.00;77.50
22779;DHT22;11556;51.194;3.800;2022-08-21T16:35:29;26.00;77.80
22779;DHT22;11556;51.194;3.800;2022-08-21T16:37:56;26.00;78.60
22779;DHT22;11556;51.194;3.800;2022-08-21T16:40:21;25.90;79.00
22779;DHT22;11556;51.194;3.800;2022-08-21T16:42:47;26.00;79.10
22779;DHT22;11556;51.194;3.800;2022-08-21T16:45:16;26.00;79.00
22779;DHT22;11556;51.194;3.800;2022-08-21T16:47:43;26.00;78.40
22779;DHT22;11556;51.194;3.800;2022-08-21T16:50:10;25.90;78.80
22779;DHT22;11556;51.194;3.800;2022-08-21T16:52:37;25.70;79.40
22779;DHT22;11556;51.194;3.800;2022-08-21T16:55:03;25.70;80.30
22779;DHT22;11556;51.194;3.800;2022-08-21T16:57:30;25.50;80.90
22779;DHT22;11556;51.194;3.800;2022-08-21T16:59:56;25.30;81.90
22779;DHT22;11556;51.194;3.800;2022-08-21T17:02:34;25.20;83.10
22779;DHT22;11556;51.194;3.800;2022-08-21T17:05:02;25.30;83.40
22779;DHT22;11556;51.194;3.800;2022-08-21T17:07:29;25.10;83.10
22779;DHT22;11556;51.194;3.800;2022-08-21T17:09:55;24.90;84.50
22779;DHT22;11556;51.194;3.800;2022-08-21T17:12:21;24.90;84.90
22779;DHT22;11556;51.194;3.800;2022-08-21T17:14:47;25.00;85.00